createdAt,value
2018-08-12T00:00:20.254Z,20.60
2018-08-12T00:02:49.139Z,20.50
2018-08-12T00:05:17.949Z,20.50
2018-08-12T00:07:47.075Z,20.60
2018-08-12T00:10:15.985Z,20.70
2018-08-12T00:12:44.800Z,20.60
2018-08-12T00:15:15.799Z,20.60
2018-08-12T00:17:44.595Z,20.70
2018-08-12T00:20:22.232Z,20.70
2018-08-12T00:22:51.420Z,20.50
2018-08-12T00:25:21.781Z,20.50
2018-08-12T00:27:50.623Z,20.40
2018-08-12T00:30:20.193Z,20.30
2018-08-12T00:32:49.003Z,20.40
2018-08-12T00:35:19.128Z,20.40
2018-08-12T00:37:47.963Z,20.40
2018-08-12T00:40:17.812Z,20.30
2018-08-12T00:42:47.013Z,20.40
2018-08-12T00:45:17.669Z,20.40
2018-08-12T00:47:46.652Z,20.30
2018-08-12T00:50:16.305Z,20.30
2018-08-12T00:52:45.167Z,20.20
2018-08-12T00:55:17.342Z,20.20
2018-08-12T00:57:46.941Z,20.20
2018-08-12T01:00:19.255Z,20.30
2018-08-12T01:02:48.082Z,20.20
2018-08-12T01:05:17.928Z,20.20
2018-08-12T01:07:47.956Z,20.20
2018-08-12T01:10:17.447Z,20.20
2018-08-12T01:12:46.308Z,20.20
2018-08-12T01:15:16.945Z,20.20
2018-08-12T01:17:46.043Z,20.20
2018-08-12T01:20:19.025Z,20.20
2018-08-12T01:22:47.827Z,20.40
2018-08-12T01:25:16.662Z,20.40
2018-08-12T01:27:45.515Z,20.40
2018-08-12T01:30:16.812Z,20.30
2018-08-12T01:32:46.189Z,20.30
2018-08-12T01:35:15.644Z,20.40
2018-08-12T01:37:45.240Z,20.30
2018-08-12T01:40:15.507Z,20.40
2018-08-12T01:42:44.869Z,20.30
2018-08-12T01:45:15.509Z,20.30
2018-08-12T01:47:44.311Z,20.30
2018-08-12T01:50:14.827Z,20.20
2018-08-12T01:52:43.698Z,20.20
2018-08-12T01:55:12.519Z,20.40
2018-08-12T01:57:41.349Z,20.60
2018-08-12T02:00:14.476Z,20.50
2018-08-12T02:02:43.365Z,20.30
2018-08-12T02:05:12.179Z,20.30
2018-08-12T02:07:41.166Z,20.30
2018-08-12T02:10:10.817Z,20.30
2018-08-12T02:12:40.014Z,20.30
2018-08-12T02:15:09.877Z,20.40
2018-08-12T02:17:38.820Z,20.20
2018-08-12T02:20:08.447Z,20.20
2018-08-12T02:22:37.884Z,20.10
2018-08-12T02:25:07.130Z,20.10
2018-08-12T02:27:36.020Z,20.10
2018-08-12T02:30:05.403Z,20.10
2018-08-12T02:32:34.217Z,20.10
2018-08-12T02:35:03.195Z,20.10
2018-08-12T02:37:32.043Z,20.00
2018-08-12T02:40:00.842Z,20.00
2018-08-12T02:42:29.678Z,20.00
2018-08-12T02:44:58.540Z,20.00
2018-08-12T02:47:27.364Z,20.00
2018-08-12T02:49:56.179Z,20.10
2018-08-12T02:52:25.060Z,20.10
2018-08-12T02:54:53.896Z,20.00
2018-08-12T02:57:22.720Z,19.90
2018-08-12T02:59:51.569Z,19.90
2018-08-12T03:02:20.375Z,19.80
2018-08-12T03:04:49.224Z,19.80
2018-08-12T03:07:18.070Z,19.80
2018-08-12T03:09:46.957Z,19.70
2018-08-12T03:12:15.768Z,19.70
2018-08-12T03:14:44.642Z,19.60
2018-08-12T03:17:13.466Z,19.60
2018-08-12T03:19:42.276Z,19.60
2018-08-12T03:22:11.153Z,19.60
2018-08-12T03:24:40.061Z,19.70
2018-08-12T03:27:08.863Z,19.80
2018-08-12T03:29:37.716Z,19.80
2018-08-12T03:32:06.520Z,19.90
2018-08-12T03:34:35.360Z,19.90
2018-08-12T03:37:04.288Z,19.80
2018-08-12T03:39:33.087Z,19.70
2018-08-12T03:42:01.903Z,19.70
2018-08-12T03:44:30.763Z,19.60
2018-08-12T03:46:59.591Z,19.60
2018-08-12T03:49:28.410Z,19.60
2018-08-12T03:51:57.311Z,19.70
2018-08-12T03:54:26.134Z,19.70
2018-08-12T03:56:54.959Z,19.70
2018-08-12T03:59:24.089Z,19.60
2018-08-12T04:01:52.949Z,19.80
2018-08-12T04:04:21.868Z,19.80
2018-08-12T04:06:50.731Z,19.80
2018-08-12T04:09:19.537Z,19.90
2018-08-12T04:11:48.341Z,19.80
2018-08-12T04:14:17.432Z,19.80
2018-08-12T04:16:50.704Z,19.80
2018-08-12T04:19:19.600Z,20.00
2018-08-12T04:21:48.400Z,20.00
2018-08-12T04:24:17.208Z,20.00
2018-08-12T04:26:46.056Z,20.10
2018-08-12T04:29:14.889Z,20.10
2018-08-12T04:31:43.803Z,20.20
2018-08-12T04:34:12.666Z,20.40
2018-08-12T04:36:41.553Z,20.20
2018-08-12T04:39:12.574Z,20.40
2018-08-12T04:41:42.416Z,20.30
2018-08-12T04:44:11.562Z,20.40
2018-08-12T04:46:40.507Z,20.50
2018-08-12T04:49:10.162Z,20.50
2018-08-12T04:51:39.361Z,20.50
2018-08-12T04:54:08.608Z,20.60
2018-08-12T04:56:37.426Z,20.70
2018-08-12T04:59:06.564Z,20.70
2018-08-12T05:01:35.486Z,20.70
2018-08-12T05:04:04.331Z,20.70
2018-08-12T05:06:33.136Z,20.70
2018-08-12T05:09:01.995Z,20.90
2018-08-12T05:11:30.824Z,21.00
2018-08-12T05:13:59.636Z,21.10
2018-08-12T05:16:28.563Z,21.10
2018-08-12T05:18:57.398Z,21.20
2018-08-12T05:21:26.212Z,21.10
2018-08-12T05:23:55.060Z,21.20
2018-08-12T05:26:23.881Z,21.30
2018-08-12T05:28:52.931Z,21.40
2018-08-12T05:31:21.935Z,21.40
2018-08-12T05:33:51.356Z,21.50
2018-08-12T05:36:21.294Z,21.50
2018-08-12T05:38:50.231Z,21.50
2018-08-12T05:41:19.047Z,21.60
2018-08-12T05:43:47.857Z,21.60
2018-08-12T05:46:16.702Z,21.70
2018-08-12T05:48:45.706Z,21.80
2018-08-12T05:51:14.592Z,21.80
2018-08-12T05:53:43.397Z,21.90
2018-08-12T05:56:12.213Z,21.90
2018-08-12T05:58:41.236Z,22.00
2018-08-12T06:01:10.161Z,22.00
2018-08-12T06:03:38.976Z,22.10
2018-08-12T06:06:07.793Z,22.20
2018-08-12T06:08:36.711Z,22.20
2018-08-12T06:11:05.532Z,22.20
2018-08-12T06:13:34.392Z,22.30
2018-08-12T06:16:03.280Z,22.30
2018-08-12T06:18:32.107Z,22.30
2018-08-12T06:21:00.916Z,22.40
2018-08-12T06:23:30.136Z,22.40
2018-08-12T06:25:58.944Z,22.50
2018-08-12T06:28:28.303Z,22.50
2018-08-12T06:30:57.195Z,22.50
2018-08-12T06:33:26.025Z,22.60
2018-08-12T06:35:54.861Z,22.60
2018-08-12T06:38:23.706Z,22.70
2018-08-12T06:40:52.516Z,22.70
2018-08-12T06:43:21.330Z,22.70
2018-08-12T06:45:50.193Z,22.80
2018-08-12T06:48:19.009Z,22.80
2018-08-12T06:50:47.815Z,22.90
2018-08-12T06:53:16.689Z,22.90
2018-08-12T06:55:45.502Z,23.00
2018-08-12T06:58:14.334Z,23.00
2018-08-12T07:00:43.247Z,23.00
2018-08-12T07:03:12.204Z,23.10
2018-08-12T07:05:41.075Z,23.20
2018-08-12T07:08:09.917Z,23.40
2018-08-12T07:10:38.824Z,23.40
2018-08-12T07:13:07.656Z,23.50
2018-08-12T07:15:36.508Z,23.60
2018-08-12T07:18:05.571Z,23.60
2018-08-12T07:20:34.408Z,23.70
2018-08-12T07:23:03.215Z,23.70
2018-08-12T07:25:32.508Z,23.80
2018-08-12T07:28:01.350Z,23.80
2018-08-12T07:30:30.203Z,23.90
2018-08-12T07:32:59.336Z,23.90
2018-08-12T07:35:28.097Z,24.00
2018-08-12T07:37:56.896Z,24.00
2018-08-12T07:40:25.797Z,24.10
2018-08-12T07:42:54.620Z,24.10
2018-08-12T07:45:23.449Z,24.20
2018-08-12T07:47:52.391Z,24.20
2018-08-12T07:50:21.242Z,24.20
2018-08-12T07:52:50.058Z,24.20
2018-08-12T07:55:18.936Z,24.20
2018-08-12T07:57:47.771Z,24.30
2018-08-12T08:00:18.563Z,24.30
2018-08-12T08:02:47.827Z,24.30
2018-08-12T08:05:16.753Z,24.40
2018-08-12T08:07:45.620Z,24.40
2018-08-12T08:10:16.600Z,24.40
2018-08-12T08:12:45.534Z,24.50
2018-08-12T08:15:16.829Z,24.50
2018-08-12T08:17:45.756Z,24.50
2018-08-12T08:20:15.442Z,24.60
2018-08-12T08:22:44.639Z,24.60
2018-08-12T08:25:13.667Z,24.70
2018-08-12T08:27:42.553Z,24.70
2018-08-12T08:30:13.412Z,24.70
2018-08-12T08:32:42.858Z,24.80
2018-08-12T08:35:12.675Z,24.80
2018-08-12T08:37:41.925Z,24.80
2018-08-12T08:40:14.218Z,24.90
2018-08-12T08:42:43.119Z,24.90
2018-08-12T08:45:18.295Z,25.00
2018-08-12T08:47:48.555Z,25.00
2018-08-12T08:50:18.987Z,25.00
2018-08-12T08:52:47.856Z,25.00
2018-08-12T08:55:17.650Z,25.10
2018-08-12T08:57:47.169Z,25.10
2018-08-12T09:00:19.314Z,25.10
2018-08-12T09:02:49.664Z,25.10
2018-08-12T09:05:19.075Z,25.20
2018-08-12T09:07:48.199Z,25.20
2018-08-12T09:10:18.146Z,25.30
2018-08-12T09:12:47.036Z,25.30
2018-08-12T09:15:17.715Z,25.40
2018-08-12T09:17:47.372Z,25.40
2018-08-12T09:20:19.408Z,25.50
2018-08-12T09:22:48.305Z,25.50
2018-08-12T09:25:17.408Z,25.50
2018-08-12T09:27:46.218Z,25.50
2018-08-12T09:30:17.076Z,25.60
2018-08-12T09:32:46.564Z,25.60
2018-08-12T09:35:15.392Z,25.60
2018-08-12T09:37:44.253Z,25.60
2018-08-12T09:40:15.704Z,25.60
2018-08-12T09:42:45.595Z,25.60
2018-08-12T09:45:17.355Z,25.70
2018-08-12T09:47:46.492Z,25.70
2018-08-12T09:50:18.648Z,25.70
2018-08-12T09:52:48.489Z,25.70
2018-08-12T09:55:17.865Z,25.80
2018-08-12T09:57:46.691Z,25.70
2018-08-12T10:00:22.864Z,25.80
2018-08-12T10:02:53.666Z,25.80
2018-08-12T10:05:22.626Z,25.80
2018-08-12T10:07:51.452Z,25.80
2018-08-12T10:10:20.828Z,25.80
2018-08-12T10:12:49.797Z,25.80
2018-08-12T10:15:18.736Z,25.90
2018-08-12T10:17:49.631Z,25.90
2018-08-12T10:20:19.756Z,25.90
2018-08-12T10:22:48.649Z,26.00
2018-08-12T10:25:17.478Z,26.00
2018-08-12T10:27:46.759Z,26.00
2018-08-12T10:30:16.109Z,26.00
2018-08-12T10:32:45.042Z,26.00
2018-08-12T10:35:15.445Z,26.00
2018-08-12T10:37:44.495Z,26.00
2018-08-12T10:40:15.229Z,26.00
2018-08-12T10:42:45.103Z,26.00
2018-08-12T10:45:14.214Z,26.10
2018-08-12T10:47:43.519Z,26.10
2018-08-12T10:50:14.785Z,26.10
2018-08-12T10:52:44.924Z,26.10
2018-08-12T10:55:15.169Z,26.10
2018-08-12T10:57:44.724Z,26.10
2018-08-12T11:00:16.632Z,26.10
2018-08-12T11:02:46.437Z,26.10
2018-08-12T11:05:16.002Z,26.10
2018-08-12T11:07:45.902Z,26.10
2018-08-12T11:10:15.190Z,26.10
2018-08-12T11:12:44.146Z,26.10
2018-08-12T11:15:13.042Z,26.10
2018-08-12T11:17:42.267Z,26.10
2018-08-12T11:20:11.424Z,26.10
2018-08-12T11:22:40.332Z,26.10
2018-08-12T11:25:10.927Z,26.10
2018-08-12T11:27:39.752Z,26.20
2018-08-12T11:30:12.904Z,26.20
2018-08-12T11:32:41.948Z,26.20
2018-08-12T11:35:13.476Z,26.10
2018-08-12T11:37:42.808Z,26.20
2018-08-12T11:40:12.680Z,26.10
2018-08-12T11:42:41.557Z,26.10
2018-08-12T11:45:14.701Z,26.10
2018-08-12T11:47:44.572Z,26.10
2018-08-12T11:50:13.919Z,26.10
2018-08-12T11:52:43.539Z,26.20
2018-08-12T11:55:13.658Z,26.20
2018-08-12T11:57:42.531Z,26.20
2018-08-12T12:00:14.352Z,26.20
2018-08-12T12:02:43.844Z,26.20
2018-08-12T12:05:13.453Z,26.20
2018-08-12T12:07:42.493Z,26.20
2018-08-12T12:10:14.719Z,26.20
2018-08-12T12:12:44.846Z,26.30
2018-08-12T12:15:14.518Z,26.30
2018-08-12T12:17:43.786Z,26.30
2018-08-12T12:20:13.669Z,26.30
2018-08-12T12:22:43.212Z,26.30
2018-08-12T12:25:14.063Z,26.30
2018-08-12T12:27:42.902Z,26.30
2018-08-12T12:30:17.614Z,26.30
2018-08-12T12:32:47.181Z,26.30
2018-08-12T12:35:16.003Z,26.30
2018-08-12T12:37:44.948Z,26.30
2018-08-12T12:40:15.578Z,26.30
2018-08-12T12:42:45.340Z,26.30
2018-08-12T12:45:14.818Z,26.30
2018-08-12T12:47:44.028Z,26.30
2018-08-12T12:50:16.849Z,26.30
2018-08-12T12:52:46.313Z,26.30
2018-08-12T12:55:16.202Z,26.30
2018-08-12T12:57:45.033Z,26.30
2018-08-12T13:00:16.531Z,26.30
2018-08-12T13:02:45.581Z,26.30
2018-08-12T13:05:16.867Z,26.30
2018-08-12T13:07:46.848Z,26.30
2018-08-12T13:10:16.814Z,26.30
2018-08-12T13:12:45.701Z,26.30
2018-08-12T13:15:15.556Z,26.40
2018-08-12T13:17:44.452Z,26.40
2018-08-12T13:20:15.938Z,26.40
2018-08-12T13:22:45.995Z,26.40
2018-08-12T13:25:16.888Z,26.40
2018-08-12T13:27:45.998Z,26.50
2018-08-12T13:30:16.024Z,26.50
2018-08-12T13:32:45.885Z,26.40
2018-08-12T13:35:14.731Z,26.40
2018-08-12T13:37:43.707Z,26.40
2018-08-12T13:40:14.426Z,26.40
2018-08-12T13:42:44.214Z,26.40
2018-08-12T13:45:13.839Z,26.40
2018-08-12T13:47:44.224Z,26.40
2018-08-12T13:50:17.690Z,26.40
2018-08-12T13:52:47.232Z,26.30
2018-08-12T13:55:16.232Z,26.30
2018-08-12T13:57:45.479Z,26.30
2018-08-12T14:00:20.171Z,26.30
2018-08-12T14:02:49.069Z,26.30
2018-08-12T14:05:18.771Z,26.30
2018-08-12T14:07:48.273Z,26.30
2018-08-12T14:10:17.098Z,26.30
2018-08-12T14:12:45.915Z,26.30
2018-08-12T14:15:17.161Z,26.30
2018-08-12T14:17:47.172Z,26.30
2018-08-12T14:20:17.777Z,26.30
2018-08-12T14:22:46.641Z,26.30
2018-08-12T14:25:15.484Z,26.30
2018-08-12T14:27:44.903Z,26.30
2018-08-12T14:30:18.383Z,26.30
2018-08-12T14:32:48.037Z,26.30
2018-08-12T14:35:16.961Z,26.20
2018-08-12T14:37:45.864Z,26.30
2018-08-12T14:40:15.395Z,26.30
2018-08-12T14:42:44.619Z,26.30
2018-08-12T14:45:14.806Z,26.30
2018-08-12T14:47:44.604Z,26.30
2018-08-12T14:50:17.553Z,26.30
2018-08-12T14:52:46.421Z,26.30
2018-08-12T14:55:16.449Z,26.30
2018-08-12T14:57:45.305Z,26.30
2018-08-12T15:00:16.203Z,26.30
2018-08-12T15:02:46.192Z,26.30
2018-08-12T15:05:15.020Z,26.30
2018-08-12T15:07:43.920Z,26.30
2018-08-12T15:10:13.192Z,26.30
2018-08-12T15:12:43.016Z,26.30
2018-08-12T15:15:13.366Z,26.30
2018-08-12T15:17:43.455Z,26.40
2018-08-12T15:20:12.860Z,26.40
2018-08-12T15:22:41.959Z,26.40
2018-08-12T15:25:13.849Z,26.40
2018-08-12T15:27:43.101Z,26.40
2018-08-12T15:30:11.933Z,26.40
2018-08-12T15:32:40.776Z,26.40
2018-08-12T15:35:10.181Z,26.40
2018-08-12T15:37:39.042Z,26.40
2018-08-12T15:40:10.177Z,26.40
2018-08-12T15:42:39.377Z,26.30
2018-08-12T15:45:10.874Z,26.30
2018-08-12T15:47:40.220Z,26.30
2018-08-12T15:50:10.048Z,26.30
2018-08-12T15:52:39.360Z,26.30
2018-08-12T15:55:08.856Z,26.30
2018-08-12T15:57:37.754Z,26.30
2018-08-12T16:00:10.908Z,26.30
2018-08-12T16:02:39.740Z,26.30
2018-08-12T16:05:08.572Z,26.30
2018-08-12T16:07:37.713Z,26.30
2018-08-12T16:10:09.781Z,26.30
2018-08-12T16:12:38.644Z,26.30
2018-08-12T16:15:09.647Z,26.30
2018-08-12T16:17:39.092Z,26.30
2018-08-12T16:20:08.474Z,26.30
2018-08-12T16:22:37.676Z,26.30
2018-08-12T16:25:09.989Z,26.30
2018-08-12T16:27:39.146Z,26.30
2018-08-12T16:30:09.595Z,26.30
2018-08-12T16:32:39.183Z,26.20
2018-08-12T16:35:09.689Z,26.20
2018-08-12T16:37:38.499Z,26.20
2018-08-12T16:40:09.123Z,26.20
2018-08-12T16:42:37.946Z,26.20
2018-08-12T16:45:07.984Z,26.20
2018-08-12T16:47:36.865Z,26.20
2018-08-12T16:50:06.780Z,26.20
2018-08-12T16:52:35.639Z,26.20
2018-08-12T16:55:05.379Z,26.20
2018-08-12T16:57:34.294Z,26.20
2018-08-12T17:00:03.131Z,26.20
2018-08-12T17:02:32.043Z,26.10
2018-08-12T17:05:00.851Z,26.10
2018-08-12T17:07:29.669Z,26.10
2018-08-12T17:09:58.562Z,26.10
2018-08-12T17:12:27.366Z,26.10
2018-08-12T17:14:56.205Z,26.10
2018-08-12T17:17:25.120Z,26.10
2018-08-12T17:19:53.936Z,26.10
2018-08-12T17:22:22.876Z,26.00
2018-08-12T17:24:51.708Z,26.00
2018-08-12T17:27:20.552Z,26.00
2018-08-12T17:29:49.388Z,25.90
2018-08-12T17:32:18.259Z,25.90
2018-08-12T17:34:47.129Z,25.80
2018-08-12T17:37:15.967Z,25.80
2018-08-12T17:39:44.828Z,25.70
2018-08-12T17:42:13.655Z,25.70
2018-08-12T17:44:42.492Z,25.70
2018-08-12T17:47:11.421Z,25.70
2018-08-12T17:49:40.353Z,25.60
2018-08-12T17:52:09.276Z,25.60
2018-08-12T17:54:38.212Z,25.60
2018-08-12T17:57:07.054Z,25.60
2018-08-12T17:59:35.908Z,25.50
2018-08-12T18:02:04.793Z,25.50
2018-08-12T18:04:33.975Z,25.50
2018-08-12T18:07:02.826Z,25.50
2018-08-12T18:09:31.690Z,25.40
2018-08-12T18:12:00.508Z,25.40
2018-08-12T18:14:29.319Z,25.40
2018-08-12T18:16:58.168Z,25.30
2018-08-12T18:19:26.983Z,25.30
2018-08-12T18:21:55.846Z,25.30
2018-08-12T18:24:24.732Z,25.20
2018-08-12T18:26:53.580Z,25.20
2018-08-12T18:29:22.413Z,25.20
2018-08-12T18:31:51.881Z,25.10
2018-08-12T18:34:20.700Z,25.10
2018-08-12T18:36:49.540Z,25.10
2018-08-12T18:39:18.406Z,25.10
2018-08-12T18:41:47.264Z,25.00
2018-08-12T18:44:16.763Z,25.00
2018-08-12T18:46:45.673Z,24.90
2018-08-12T18:49:14.493Z,24.90
2018-08-12T18:51:43.308Z,24.90
2018-08-12T18:54:12.177Z,24.90
2018-08-12T18:56:41.029Z,24.80
2018-08-12T18:59:09.920Z,24.80
2018-08-12T19:01:38.752Z,24.80
2018-08-12T19:04:07.624Z,24.80
2018-08-12T19:06:36.550Z,24.70
2018-08-12T19:09:08.745Z,24.70
2018-08-12T19:11:37.618Z,24.70
2018-08-12T19:14:06.925Z,24.70
2018-08-12T19:16:35.767Z,24.70
2018-08-12T19:19:04.847Z,24.60
2018-08-12T19:21:33.683Z,24.60
2018-08-12T19:24:02.483Z,24.60
2018-08-12T19:26:31.371Z,24.60
2018-08-12T19:29:00.280Z,24.60
2018-08-12T19:31:29.154Z,24.50
2018-08-12T19:33:58.100Z,24.50
2018-08-12T19:36:27.079Z,24.50
2018-08-12T19:38:55.902Z,24.50
2018-08-12T19:41:24.789Z,24.10
2018-08-12T19:43:53.635Z,23.60
2018-08-12T19:46:22.711Z,23.30
2018-08-12T19:48:51.568Z,22.90
2018-08-12T19:51:20.465Z,22.70
2018-08-12T19:53:49.308Z,22.60
2018-08-12T19:56:18.142Z,22.50
2018-08-12T19:58:47.011Z,22.50
2018-08-12T20:01:15.828Z,22.40
2018-08-12T20:03:44.713Z,22.40
2018-08-12T20:06:13.596Z,22.50
2018-08-12T20:08:42.423Z,22.40
2018-08-12T20:11:11.233Z,22.40
2018-08-12T20:13:40.113Z,22.50
2018-08-12T20:16:09.422Z,22.40
2018-08-12T20:18:38.348Z,22.40
2018-08-12T20:21:07.141Z,22.20
2018-08-12T20:23:36.021Z,22.20
2018-08-12T20:26:04.848Z,22.20
2018-08-12T20:28:33.732Z,22.10
2018-08-12T20:31:02.570Z,22.00
2018-08-12T20:33:31.411Z,22.00
2018-08-12T20:36:00.286Z,21.90
2018-08-12T20:38:29.123Z,21.80
2018-08-12T20:40:57.960Z,21.70
2018-08-12T20:43:26.869Z,21.70
2018-08-12T20:45:55.731Z,21.70
2018-08-12T20:48:24.567Z,21.60
2018-08-12T20:50:53.474Z,21.40
2018-08-12T20:53:22.293Z,21.40
2018-08-12T20:55:51.109Z,21.30
2018-08-12T20:58:19.970Z,21.30
2018-08-12T21:00:48.797Z,21.20
2018-08-12T21:03:17.625Z,21.20
2018-08-12T21:05:46.503Z,21.30
2018-08-12T21:08:15.330Z,21.30
2018-08-12T21:10:44.166Z,21.30
2018-08-12T21:13:13.043Z,21.10
2018-08-12T21:15:41.873Z,21.20
2018-08-12T21:18:10.687Z,21.10
2018-08-12T21:20:39.553Z,21.00
2018-08-12T21:23:08.392Z,21.10
2018-08-12T21:25:37.196Z,21.00
2018-08-12T21:28:06.911Z,21.00
2018-08-12T21:30:35.714Z,21.10
2018-08-12T21:33:05.090Z,21.00
2018-08-12T21:35:33.961Z,20.90
2018-08-12T21:38:02.774Z,20.80
2018-08-12T21:40:31.604Z,20.70
2018-08-12T21:43:00.526Z,20.80
2018-08-12T21:45:29.352Z,20.80
2018-08-12T21:47:58.287Z,20.80
2018-08-12T21:50:27.080Z,20.80
2018-08-12T21:52:55.892Z,20.80
2018-08-12T21:55:24.710Z,20.80
2018-08-12T21:57:53.566Z,20.70
2018-08-12T22:00:22.641Z,20.60
2018-08-12T22:02:51.454Z,20.60
2018-08-12T22:05:20.318Z,20.70
2018-08-12T22:07:49.126Z,20.80
2018-08-12T22:10:17.931Z,20.90
2018-08-12T22:12:46.968Z,20.70
2018-08-12T22:15:15.785Z,20.70
2018-08-12T22:17:44.599Z,20.70
2018-08-12T22:20:13.980Z,20.70
2018-08-12T22:22:42.787Z,20.70
2018-08-12T22:25:11.595Z,20.70
2018-08-12T22:27:40.464Z,20.60
2018-08-12T22:30:13.062Z,20.70
2018-08-12T22:32:41.984Z,20.60
2018-08-12T22:35:10.818Z,20.60
2018-08-12T22:37:39.629Z,20.50
2018-08-12T22:40:09.101Z,20.60
2018-08-12T22:42:38.251Z,20.60
2018-08-12T22:45:09.215Z,20.60
2018-08-12T22:47:38.012Z,20.60
2018-08-12T22:50:07.699Z,20.50
2018-08-12T22:52:36.640Z,20.50
2018-08-12T22:55:06.231Z,20.60
2018-08-12T22:57:35.109Z,20.60
2018-08-12T23:00:05.788Z,20.60
2018-08-12T23:02:34.715Z,20.60
2018-08-12T23:05:03.734Z,20.40
2018-08-12T23:07:32.603Z,20.40
2018-08-12T23:10:01.422Z,20.30
2018-08-12T23:12:30.237Z,20.30
2018-08-12T23:17:15.564Z,20.30
2018-08-12T23:19:44.439Z,20.30
2018-08-12T23:22:13.272Z,20.30
2018-08-12T23:24:42.123Z,20.30
2018-08-12T23:27:10.946Z,20.30
2018-08-12T23:29:39.750Z,20.40
2018-08-12T23:32:08.595Z,20.40
2018-08-12T23:34:37.426Z,20.40
2018-08-12T23:37:06.240Z,20.40
2018-08-12T23:39:35.206Z,20.40
2018-08-12T23:42:04.012Z,20.40
2018-08-12T23:44:32.835Z,20.30
2018-08-12T23:47:01.687Z,20.30
2018-08-12T23:49:30.513Z,20.40
2018-08-12T23:51:59.356Z,20.40
2018-08-12T23:54:28.216Z,20.40
2018-08-12T23:56:57.048Z,20.30
2018-08-12T23:59:25.863Z,20.40
